createdAt,value
2019-05-09T00:02:14.104Z,90
2019-05-09T00:07:14.292Z,88.9
2019-05-09T00:12:14.549Z,88.6
2019-05-09T00:17:14.439Z,88.5
2019-05-09T00:22:14.120Z,88.9
2019-05-09T00:27:14.450Z,89.8
2019-05-09T00:32:14.192Z,89.2
2019-05-09T00:37:13.829Z,89.9
2019-05-09T00:42:14.160Z,89.8
2019-05-09T00:47:13.758Z,89.7
2019-05-09T00:52:14.388Z,90.5
2019-05-09T00:57:14.072Z,89.2
2019-05-09T01:02:13.928Z,90.3
2019-05-09T01:07:14.180Z,90.2
2019-05-09T01:12:14.572Z,90.9
2019-05-09T01:17:14.192Z,90.9
2019-05-09T01:22:14.021Z,90.8
2019-05-09T01:27:14.472Z,91.1
2019-05-09T01:32:14.730Z,91.1
2019-05-09T01:37:14.406Z,90.6
2019-05-09T01:42:14.111Z,91.1
2019-05-09T01:47:14.318Z,90.4
2019-05-09T01:52:14.135Z,91.4
2019-05-09T01:57:14.120Z,91.4
2019-05-09T02:02:14.442Z,91.3
2019-05-09T02:07:14.011Z,91
2019-05-09T02:12:14.474Z,91.3
2019-05-09T02:17:14.204Z,91.1
2019-05-09T02:22:14.049Z,90.6
2019-05-09T02:27:13.859Z,91
2019-05-09T02:32:14.653Z,91.4
2019-05-09T02:37:14.010Z,91.2
2019-05-09T02:42:14.683Z,90.7
2019-05-09T02:47:13.991Z,90.7
2019-05-09T02:52:13.730Z,91.9
2019-05-09T02:57:13.442Z,91.4
2019-05-09T03:02:13.186Z,91.2
2019-05-09T03:07:12.923Z,90.7
2019-05-09T03:12:35.338Z,91.5
2019-05-09T03:17:32.472Z,91
2019-05-09T03:22:31.771Z,90.7
2019-05-09T03:27:31.622Z,91.3
2019-05-09T03:32:31.743Z,89.6
2019-05-09T03:37:31.771Z,88.1
2019-05-09T03:42:43.894Z,89.4
2019-05-09T03:47:41.638Z,90
2019-05-09T03:52:40.652Z,89
2019-05-09T03:57:40.263Z,89.1
2019-05-09T04:02:39.921Z,90
2019-05-09T04:07:39.668Z,88.8
2019-05-09T04:12:56.475Z,87.7
2019-05-09T04:17:58.103Z,85.8
2019-05-09T04:22:59.702Z,81.9
2019-05-09T04:27:59.526Z,80.4
2019-05-09T04:32:59.847Z,77.2
2019-05-09T04:38:00.595Z,73.7
2019-05-09T04:43:19.289Z,68.5
2019-05-09T04:48:24.170Z,62.7
2019-05-09T04:53:23.072Z,65.1
2019-05-09T04:58:22.701Z,65.3
2019-05-09T05:03:22.338Z,67.7
2019-05-09T05:08:22.242Z,66.6
2019-05-09T05:13:29.570Z,62
2019-05-09T05:18:28.718Z,61
2019-05-09T05:23:28.196Z,61.7
2019-05-09T05:28:28.069Z,63.3
2019-05-09T05:33:28.087Z,62.5
2019-05-09T05:38:28.116Z,63.2
2019-05-09T05:43:44.634Z,67.3
2019-05-09T05:48:41.863Z,68
2019-05-09T05:53:41.954Z,65.8
2019-05-09T05:58:40.869Z,68.8
2019-05-09T06:03:40.725Z,71.4
2019-05-09T06:08:40.987Z,69.2
2019-05-09T06:13:58.341Z,68.8
2019-05-09T06:19:01.468Z,65.6
2019-05-09T06:24:00.873Z,68.9
2019-05-09T06:29:00.810Z,67.2
2019-05-09T06:33:59.964Z,69.3
2019-05-09T06:38:59.973Z,69.1
2019-05-09T06:44:17.118Z,71.2
2019-05-09T06:49:31.314Z,68.9
2019-05-09T06:54:29.433Z,67.4
2019-05-09T06:59:28.727Z,64.7
2019-05-09T07:04:28.486Z,67.8
2019-05-09T07:09:28.423Z,64.8
2019-05-09T07:14:34.748Z,67.2
2019-05-09T07:19:34.637Z,64.3
2019-05-09T07:24:34.298Z,65.5
2019-05-09T07:29:34.038Z,65.4
2019-05-09T07:34:33.909Z,64.2
2019-05-09T07:39:33.592Z,63.1
2019-05-09T07:44:52.102Z,61.9
2019-05-09T07:49:49.285Z,61.5
2019-05-09T07:54:49.435Z,60.4
2019-05-09T07:59:49.507Z,60.7
2019-05-09T08:04:49.753Z,57.2
2019-05-09T08:09:49.513Z,57
2019-05-09T08:15:15.928Z,57.6
2019-05-09T08:20:14.158Z,56.6
2019-05-09T08:25:14.349Z,53.1
2019-05-09T08:30:14.315Z,49.9
2019-05-09T08:35:13.864Z,50.5
2019-05-09T08:40:13.899Z,49.7
2019-05-09T08:45:30.958Z,55.8
2019-05-09T08:50:29.199Z,47.9
2019-05-09T08:55:29.272Z,47.6
2019-05-09T09:00:29.277Z,49.8
2019-05-09T09:05:29.340Z,46.6
2019-05-09T09:10:29.586Z,46.7
2019-05-09T09:16:14.105Z,45.1
2019-05-09T09:21:10.188Z,48.1
2019-05-09T09:26:09.960Z,49.2
2019-05-09T09:31:08.834Z,49.1
2019-05-09T09:36:09.032Z,50.5
2019-05-09T09:41:08.292Z,46.8
2019-05-09T09:46:14.998Z,49
2019-05-09T09:51:13.803Z,51.4
2019-05-09T09:56:13.226Z,51.4
2019-05-09T10:01:12.847Z,53
2019-05-09T10:06:12.609Z,52.5
2019-05-09T10:11:12.367Z,51.9
2019-05-09T10:16:31.867Z,53
2019-05-09T10:21:29.377Z,53.9
2019-05-09T10:26:29.230Z,51.8
2019-05-09T10:31:28.570Z,54.9
2019-05-09T10:36:28.181Z,52.5
2019-05-09T10:41:28.124Z,54.6
2019-05-09T10:46:53.505Z,55.8
2019-05-09T10:51:53.419Z,54.8
2019-05-09T10:56:52.417Z,53.9
2019-05-09T11:01:51.628Z,58.7
2019-05-09T11:06:51.151Z,60.7
2019-05-09T11:11:50.990Z,60.7
2019-05-09T11:17:14.302Z,59.8
2019-05-09T11:22:14.125Z,62.6
2019-05-09T11:27:13.658Z,60.7
2019-05-09T11:32:13.075Z,62.5
2019-05-09T11:37:12.943Z,66.5
2019-05-09T11:42:12.781Z,69.7
2019-05-09T11:47:39.671Z,69
2019-05-09T11:52:40.488Z,68.5
2019-05-09T11:57:40.239Z,67.7
2019-05-09T12:02:39.560Z,66.1
2019-05-09T12:07:39.586Z,64.9
2019-05-09T12:12:39.437Z,62.2
2019-05-09T12:17:59.049Z,63
2019-05-09T12:22:58.870Z,59.1
2019-05-09T12:27:58.930Z,62.5
2019-05-09T12:32:59.434Z,58.7
2019-05-09T12:37:58.564Z,54.6
2019-05-09T12:42:58.210Z,55.9
2019-05-09T12:48:15.208Z,58.5
2019-05-09T12:53:12.779Z,55.7
2019-05-09T12:58:12.453Z,55.1
2019-05-09T13:03:12.330Z,54
2019-05-09T13:08:11.373Z,56.2
2019-05-09T13:13:10.947Z,55.7
2019-05-09T13:18:25.334Z,56.4
2019-05-09T13:23:23.437Z,56.6
2019-05-09T13:28:22.979Z,57
2019-05-09T13:33:22.898Z,55.9
2019-05-09T13:38:22.692Z,54.7
2019-05-09T13:43:22.454Z,59.7
2019-05-09T13:48:56.957Z,55.9
2019-05-09T13:53:59.568Z,60.6
2019-05-09T13:58:58.758Z,60.4
2019-05-09T14:03:58.209Z,61.3
2019-05-09T14:09:00.124Z,64
2019-05-09T14:13:59.059Z,66.5
2019-05-09T14:19:35.719Z,66.8
2019-05-09T14:24:34.156Z,66.5
2019-05-09T14:29:33.620Z,68.5
2019-05-09T14:34:33.318Z,69.3
2019-05-09T14:39:32.128Z,69
2019-05-09T14:44:31.736Z,69.8
2019-05-09T14:49:44.386Z,70.3
2019-05-09T14:54:42.071Z,71.2
2019-05-09T14:59:41.463Z,74
2019-05-09T15:04:40.913Z,72.4
2019-05-09T15:09:40.504Z,73.3
2019-05-09T15:14:40.256Z,72.1
2019-05-09T15:19:49.155Z,74.5
2019-05-09T15:24:52.912Z,74.6
2019-05-09T15:29:52.551Z,74.9
2019-05-09T15:34:52.057Z,74.8
2019-05-09T15:39:51.889Z,75.7
2019-05-09T15:44:51.722Z,74.5
2019-05-09T15:49:51.631Z,78
2019-05-09T15:54:51.106Z,76.5
2019-05-09T15:59:50.888Z,76.6
2019-05-09T16:04:50.522Z,77.3
2019-05-09T16:09:50.358Z,74.4
2019-05-09T16:14:50.034Z,74.2
2019-05-09T16:19:49.760Z,73.4
2019-05-09T16:24:49.565Z,73.2
2019-05-09T16:29:49.005Z,73.2
2019-05-09T16:34:48.849Z,71.3
2019-05-09T16:39:48.525Z,71.5
2019-05-09T16:44:48.446Z,72.1
2019-05-09T16:49:48.000Z,72.5
2019-05-09T16:54:50.331Z,75.1
2019-05-09T16:59:49.234Z,74
2019-05-09T17:04:48.904Z,75.3
2019-05-09T17:09:48.786Z,76.3
2019-05-09T17:14:48.364Z,76.9
2019-05-09T17:19:48.396Z,77.8
2019-05-09T17:24:48.663Z,78.7
2019-05-09T17:29:48.382Z,79.3
2019-05-09T17:34:47.905Z,80.3
2019-05-09T17:39:47.377Z,78.7
2019-05-09T17:44:49.131Z,81.4
2019-05-09T17:49:48.622Z,80.8
2019-05-09T17:54:48.823Z,80.1
2019-05-09T17:59:49.166Z,80.6
2019-05-09T18:04:48.636Z,78.3
2019-05-09T18:09:48.689Z,77.8
2019-05-09T18:14:48.163Z,78.2
2019-05-09T18:19:48.181Z,75.1
2019-05-09T18:24:48.581Z,77.9
2019-05-09T18:29:48.221Z,75.8
2019-05-09T18:34:48.860Z,79.1
2019-05-09T18:39:48.743Z,81.4
2019-05-09T18:44:47.917Z,82.4
2019-05-09T18:49:47.499Z,82.6
2019-05-09T18:54:47.188Z,83.8
2019-05-09T18:59:46.846Z,84.8
2019-05-09T19:04:47.102Z,85.3
2019-05-09T19:09:46.754Z,85.6
2019-05-09T19:14:46.476Z,86.4
2019-05-09T19:19:46.115Z,86.1
2019-05-09T19:24:46.024Z,85.9
2019-05-09T19:29:45.885Z,86.7
2019-05-09T19:34:45.646Z,86.9
2019-05-09T19:39:45.200Z,87.2
2019-05-09T19:44:45.109Z,86.9
2019-05-09T19:49:44.641Z,87.8
2019-05-09T19:54:44.434Z,87.8
2019-05-09T19:59:44.354Z,87.5
2019-05-09T20:04:43.953Z,89
2019-05-09T20:09:43.566Z,88.2
2019-05-09T20:14:43.294Z,88.6
2019-05-09T20:19:43.104Z,89
2019-05-09T20:24:43.098Z,89.1
2019-05-09T20:29:42.989Z,89.2
2019-05-09T20:34:42.661Z,88.1
2019-05-09T20:39:42.309Z,88.4
2019-05-09T20:44:41.842Z,88.9
2019-05-09T20:49:41.689Z,89.3
2019-05-09T20:54:41.364Z,89.5
2019-05-09T20:59:41.147Z,89.7
2019-05-09T21:04:40.706Z,88.9
2019-05-09T21:09:40.517Z,90
2019-05-09T21:14:40.323Z,90.2
2019-05-09T21:19:40.087Z,90
2019-05-09T21:24:39.777Z,90.3
2019-05-09T21:29:39.347Z,90.4
2019-05-09T21:34:38.903Z,90
2019-05-09T21:39:38.731Z,89.9
2019-05-09T21:44:38.618Z,90.6
2019-05-09T21:49:37.810Z,90.8
2019-05-09T21:54:37.546Z,88.4
2019-05-09T21:59:36.589Z,90.4
2019-05-09T22:04:36.161Z,90.1
2019-05-09T22:09:35.745Z,90.8
2019-05-09T22:14:35.381Z,90.3
2019-05-09T22:19:34.977Z,90.4
2019-05-09T22:24:34.744Z,90.6
2019-05-09T22:29:34.370Z,91
2019-05-09T22:34:33.929Z,90.5
2019-05-09T22:39:33.754Z,90.9
2019-05-09T22:44:33.597Z,91
2019-05-09T22:49:33.296Z,91.2
2019-05-09T22:54:32.719Z,90.6
2019-05-09T22:59:32.530Z,91.6
2019-05-09T23:04:32.305Z,91.3
2019-05-09T23:09:31.843Z,91.8
2019-05-09T23:14:31.400Z,91.9
2019-05-09T23:19:30.918Z,91.9
2019-05-09T23:24:30.621Z,92.3
2019-05-09T23:29:30.202Z,92.8
2019-05-09T23:34:29.989Z,92.3
2019-05-09T23:39:29.701Z,93.1
2019-05-09T23:44:29.619Z,92.8
2019-05-09T23:49:29.463Z,92.5
2019-05-09T23:54:47.127Z,92.8
2019-05-09T23:59:44.434Z,91.8
